sensor_id;sensor_type;location;lat;lon;timestamp;temperature;humidity
18741;DHT22;9499;52.472;13.448;2022-09-29T00:02:00;8.70;99.90
18741;DHT22;9499;52.472;13.448;2022-09-29T00:04:27;8.70;99.90
18741;DHT22;9499;52.472;13.448;2022-09-29T00:06:54;8.60;99.90
18741;DHT22;9499;52.472;13.448;2022-09-29T00:09:21;8.60;99.90
18741;DHT22;9499;52.472;13.448;2022-09-29T00:11:47;8.60;99.90
18741;DHT22;9499;52.472;13.448;2022-09-29T00:14:14;8.60;99.90
18741;DHT22;9499;52.472;13.448;2022-09-29T00:16:40;8.60;99.90
18741;DHT22;9499;52.472;13.448;2022-09-29T00:19:07;8.60;99.90
18741;DHT22;9499;52.472;13.448;2022-09-29T00:21:34;8.70;99.90
18741;DHT22;9499;52.472;13.448;2022-09-29T00:24:02;8.70;99.90
18741;DHT22;9499;52.472;13.448;2022-09-29T00:26:28;8.60;99.90
18741;DHT22;9499;52.472;13.448;2022-09-29T00:28:57;8.60;99.90
18741;DHT22;9499;52.472;13.448;2022-09-29T00:31:27;8.60;99.90
18741;DHT22;9499;52.472;13.448;2022-09-29T00:33:54;8.60;99.90
18741;DHT22;9499;52.472;13.448;2022-09-29T00:36:21;8.60;99.90
18741;DHT22;9499;52.472;13.448;2022-09-29T00:38:49;8.50;99.90
18741;DHT22;9499;52.472;13.448;2022-09-29T00:41:20;8.60;99.90
18741;DHT22;9499;52.472;13.448;2022-09-29T00:43:54;8.60;99.90
18741;DHT22;9499;52.472;13.448;2022-09-29T00:46:32;8.60;99.90
18741;DHT22;9499;52.472;13.448;2022-09-29T00:49:02;8.60;99.90
18741;DHT22;9499;52.472;13.448;2022-09-29T00:51:31;8.60;99.90
18741;DHT22;9499;52.472;13.448;2022-09-29T00:53:59;8.60;99.90
18741;DHT22;9499;52.472;13.448;2022-09-29T00:56:29;8.60;99.90
18741;DHT22;9499;52.472;13.448;2022-09-29T00:58:58;8.60;99.90
18741;DHT22;9499;52.472;13.448;2022-09-29T01:01:30;8.60;99.90
18741;DHT22;9499;52.472;13.448;2022-09-29T01:04:01;8.50;99.90
18741;DHT22;9499;52.472;13.448;2022-09-29T01:06:34;8.50;99.90
18741;DHT22;9499;52.472;13.448;2022-09-29T01:09:03;8.50;99.90
18741;DHT22;9499;52.472;13.448;2022-09-29T01:11:32;8.50;99.90
18741;DHT22;9499;52.472;13.448;2022-09-29T01:14:00;8.50;99.90
18741;DHT22;9499;52.472;13.448;2022-09-29T01:16:29;8.50;99.90
18741;DHT22;9499;52.472;13.448;2022-09-29T01:18:56;8.40;99.90
18741;DHT22;9499;52.472;13.448;2022-09-29T01:21:28;8.40;99.90
18741;DHT22;9499;52.472;13.448;2022-09-29T01:24:13;8.40;99.90
18741;DHT22;9499;52.472;13.448;2022-09-29T01:30:14;8.50;99.90
18741;DHT22;9499;52.472;13.448;2022-09-29T01:32:55;8.40;99.90
18741;DHT22;9499;52.472;13.448;2022-09-29T01:35:27;8.40;99.90
18741;DHT22;9499;52.472;13.448;2022-09-29T01:38:10;8.40;99.90
18741;DHT22;9499;52.472;13.448;2022-09-29T01:40:46;8.30;99.90
18741;DHT22;9499;52.472;13.448;2022-09-29T01:43:16;8.20;99.90
18741;DHT22;9499;52.472;13.448;2022-09-29T01:45:48;8.30;99.90
18741;DHT22;9499;52.472;13.448;2022-09-29T01:48:20;8.20;99.90
18741;DHT22;9499;52.472;13.448;2022-09-29T01:50:51;8.30;99.90
18741;DHT22;9499;52.472;13.448;2022-09-29T01:53:23;8.20;99.90
18741;DHT22;9499;52.472;13.448;2022-09-29T01:55:54;8.30;99.90
18741;DHT22;9499;52.472;13.448;2022-09-29T01:58:26;8.30;99.90
18741;DHT22;9499;52.472;13.448;2022-09-29T02:00:57;8.20;99.90
18741;DHT22;9499;52.472;13.448;2022-09-29T02:03:29;8.20;99.90
18741;DHT22;9499;52.472;13.448;2022-09-29T02:06:00;8.20;99.90
18741;DHT22;9499;52.472;13.448;2022-09-29T02:08:30;8.20;99.90
18741;DHT22;9499;52.472;13.448;2022-09-29T02:11:01;8.20;99.90
18741;DHT22;9499;52.472;13.448;2022-09-29T02:13:31;8.20;99.90
18741;DHT22;9499;52.472;13.448;2022-09-29T02:15:58;8.10;99.90
18741;DHT22;9499;52.472;13.448;2022-09-29T02:18:31;8.10;99.90
18741;DHT22;9499;52.472;13.448;2022-09-29T02:20:58;8.10;99.90
18741;DHT22;9499;52.472;13.448;2022-09-29T02:23:24;8.20;99.90
18741;DHT22;9499;52.472;13.448;2022-09-29T02:25:51;8.20;99.90
18741;DHT22;9499;52.472;13.448;2022-09-29T02:28:20;8.20;99.90
18741;DHT22;9499;52.472;13.448;2022-09-29T02:30:48;8.20;99.90
18741;DHT22;9499;52.472;13.448;2022-09-29T02:33:19;8.20;99.90
18741;DHT22;9499;52.472;13.448;2022-09-29T02:35:54;8.20;99.90
18741;DHT22;9499;52.472;13.448;2022-09-29T02:38:29;8.10;99.90
18741;DHT22;9499;52.472;13.448;2022-09-29T02:41:01;8.10;99.90
18741;DHT22;9499;52.472;13.448;2022-09-29T02:43:39;8.10;99.90
18741;DHT22;9499;52.472;13.448;2022-09-29T02:46:18;8.10;99.90
18741;DHT22;9499;52.472;13.448;2022-09-29T02:48:58;8.00;99.90
18741;DHT22;9499;52.472;13.448;2022-09-29T02:51:34;8.00;99.90
18741;DHT22;9499;52.472;13.448;2022-09-29T02:54:14;8.00;99.90
18741;DHT22;9499;52.472;13.448;2022-09-29T02:56:48;8.00;99.90
18741;DHT22;9499;52.472;13.448;2022-09-29T02:59:20;8.00;99.90
18741;DHT22;9499;52.472;13.448;2022-09-29T03:01:50;7.90;99.90
18741;DHT22;9499;52.472;13.448;2022-09-29T03:04:17;7.90;99.90
18741;DHT22;9499;52.472;13.448;2022-09-29T03:06:45;7.90;99.90
18741;DHT22;9499;52.472;13.448;2022-09-29T03:09:12;7.90;99.90
18741;DHT22;9499;52.472;13.448;2022-09-29T03:11:39;7.90;99.90
18741;DHT22;9499;52.472;13.448;2022-09-29T03:14:06;8.00;99.90
18741;DHT22;9499;52.472;13.448;2022-09-29T03:16:33;8.00;99.90
18741;DHT22;9499;52.472;13.448;2022-09-29T03:19:00;8.00;99.90
18741;DHT22;9499;52.472;13.448;2022-09-29T03:21:26;8.00;99.90
18741;DHT22;9499;52.472;13.448;2022-09-29T03:23:55;8.00;99.90
18741;DHT22;9499;52.472;13.448;2022-09-29T03:26:21;8.10;99.90
18741;DHT22;9499;52.472;13.448;2022-09-29T03:28:49;8.10;99.90
18741;DHT22;9499;52.472;13.448;2022-09-29T03:31:15;8.20;99.90
18741;DHT22;9499;52.472;13.448;2022-09-29T03:33:42;8.20;99.90
18741;DHT22;9499;52.472;13.448;2022-09-29T03:36:09;8.30;99.90
18741;DHT22;9499;52.472;13.448;2022-09-29T03:38:36;8.40;99.90
18741;DHT22;9499;52.472;13.448;2022-09-29T03:41:05;8.40;99.90
18741;DHT22;9499;52.472;13.448;2022-09-29T03:43:31;8.50;99.90
18741;DHT22;9499;52.472;13.448;2022-09-29T03:45:58;8.50;99.90
18741;DHT22;9499;52.472;13.448;2022-09-29T03:48:25;8.60;99.90
18741;DHT22;9499;52.472;13.448;2022-09-29T03:50:55;8.50;99.90
18741;DHT22;9499;52.472;13.448;2022-09-29T03:53:22;8.50;99.90
18741;DHT22;9499;52.472;13.448;2022-09-29T03:55:49;8.60;99.90
18741;DHT22;9499;52.472;13.448;2022-09-29T03:58:18;8.60;99.90
18741;DHT22;9499;52.472;13.448;2022-09-29T04:00:46;8.60;99.90
18741;DHT22;9499;52.472;13.448;2022-09-29T04:03:13;8.60;99.90
18741;DHT22;9499;52.472;13.448;2022-09-29T04:05:39;8.60;99.90
18741;DHT22;9499;52.472;13.448;2022-09-29T04:08:07;8.60;99.90
18741;DHT22;9499;52.472;13.448;2022-09-29T04:10:33;8.60;99.90
18741;DHT22;9499;52.472;13.448;2022-09-29T04:13:00;8.60;99.90
18741;DHT22;9499;52.472;13.448;2022-09-29T04:15:28;8.60;99.90
18741;DHT22;9499;52.472;13.448;2022-09-29T04:17:54;8.60;99.90
18741;DHT22;9499;52.472;13.448;2022-09-29T04:20:21;8.60;99.90
18741;DHT22;9499;52.472;13.448;2022-09-29T04:22:48;8.70;99.90
18741;DHT22;9499;52.472;13.448;2022-09-29T04:25:14;8.60;99.90
18741;DHT22;9499;52.472;13.448;2022-09-29T04:27:41;8.60;99.90
18741;DHT22;9499;52.472;13.448;2022-09-29T04:30:09;8.50;99.90
18741;DHT22;9499;52.472;13.448;2022-09-29T04:32:37;8.50;99.90
18741;DHT22;9499;52.472;13.448;2022-09-29T04:35:04;8.50;99.90
18741;DHT22;9499;52.472;13.448;2022-09-29T04:37:31;8.40;99.90
18741;DHT22;9499;52.472;13.448;2022-09-29T04:39:57;8.40;99.90
18741;DHT22;9499;52.472;13.448;2022-09-29T04:42:24;8.40;99.90
18741;DHT22;9499;52.472;13.448;2022-09-29T04:44:50;8.40;99.90
18741;DHT22;9499;52.472;13.448;2022-09-29T04:47:17;8.40;99.90
18741;DHT22;9499;52.472;13.448;2022-09-29T04:49:45;8.50;99.90
18741;DHT22;9499;52.472;13.448;2022-09-29T04:52:12;8.50;99.90
18741;DHT22;9499;52.472;13.448;2022-09-29T04:54:39;8.50;99.90
18741;DHT22;9499;52.472;13.448;2022-09-29T04:57:06;8.50;99.90
18741;DHT22;9499;52.472;13.448;2022-09-29T04:59:34;8.60;99.90
18741;DHT22;9499;52.472;13.448;2022-09-29T05:02:00;8.60;99.90
18741;DHT22;9499;52.472;13.448;2022-09-29T05:04:27;8.60;99.90
18741;DHT22;9499;52.472;13.448;2022-09-29T05:06:55;8.60;99.90
18741;DHT22;9499;52.472;13.448;2022-09-29T05:09:21;8.60;99.90
18741;DHT22;9499;52.472;13.448;2022-09-29T05:11:48;8.70;99.90
18741;DHT22;9499;52.472;13.448;2022-09-29T05:14:14;8.70;99.90
18741;DHT22;9499;52.472;13.448;2022-09-29T05:16:40;8.70;99.90
18741;DHT22;9499;52.472;13.448;2022-09-29T05:19:07;8.70;99.90
18741;DHT22;9499;52.472;13.448;2022-09-29T05:21:35;8.70;99.90
18741;DHT22;9499;52.472;13.448;2022-09-29T05:24:03;8.70;99.90
18741;DHT22;9499;52.472;13.448;2022-09-29T05:26:29;8.70;99.90
18741;DHT22;9499;52.472;13.448;2022-09-29T05:28:56;8.70;99.90
18741;DHT22;9499;52.472;13.448;2022-09-29T05:31:23;8.70;99.90
18741;DHT22;9499;52.472;13.448;2022-09-29T05:33:49;8.70;99.90
18741;DHT22;9499;52.472;13.448;2022-09-29T05:36:16;8.60;99.90
18741;DHT22;9499;52.472;13.448;2022-09-29T05:38:42;8.70;99.90
18741;DHT22;9499;52.472;13.448;2022-09-29T05:41:11;8.70;99.90
18741;DHT22;9499;52.472;13.448;2022-09-29T05:43:39;8.70;99.90
18741;DHT22;9499;52.472;13.448;2022-09-29T05:46:07;8.70;99.90
18741;DHT22;9499;52.472;13.448;2022-09-29T05:48:34;8.70;99.90
18741;DHT22;9499;52.472;13.448;2022-09-29T05:51:06;8.70;99.90
18741;DHT22;9499;52.472;13.448;2022-09-29T05:53:33;8.70;99.90
18741;DHT22;9499;52.472;13.448;2022-09-29T05:56:04;8.70;99.90
18741;DHT22;9499;52.472;13.448;2022-09-29T05:58:32;8.70;99.90
18741;DHT22;9499;52.472;13.448;2022-09-29T06:00:58;8.60;99.90
18741;DHT22;9499;52.472;13.448;2022-09-29T06:03:25;8.60;99.90
18741;DHT22;9499;52.472;13.448;2022-09-29T06:05:51;8.60;99.90
18741;DHT22;9499;52.472;13.448;2022-09-29T06:08:18;8.60;99.90
18741;DHT22;9499;52.472;13.448;2022-09-29T06:10:44;8.60;99.90
18741;DHT22;9499;52.472;13.448;2022-09-29T06:13:11;8.50;99.90
18741;DHT22;9499;52.472;13.448;2022-09-29T06:15:39;8.50;99.90
18741;DHT22;9499;52.472;13.448;2022-09-29T06:18:05;8.50;99.90
18741;DHT22;9499;52.472;13.448;2022-09-29T06:20:32;8.50;99.90
18741;DHT22;9499;52.472;13.448;2022-09-29T06:23:05;8.50;99.90
18741;DHT22;9499;52.472;13.448;2022-09-29T06:25:35;8.60;99.90
18741;DHT22;9499;52.472;13.448;2022-09-29T06:28:01;8.60;99.90
18741;DHT22;9499;52.472;13.448;2022-09-29T06:30:28;8.60;99.90
18741;DHT22;9499;52.472;13.448;2022-09-29T06:32:56;8.50;99.90
18741;DHT22;9499;52.472;13.448;2022-09-29T06:35:22;8.60;99.90
18741;DHT22;9499;52.472;13.448;2022-09-29T06:38:07;8.50;99.90
18741;DHT22;9499;52.472;13.448;2022-09-29T06:40:33;8.50;99.90
18741;DHT22;9499;52.472;13.448;2022-09-29T06:43:00;8.40;99.90
18741;DHT22;9499;52.472;13.448;2022-09-29T06:45:27;8.40;99.90
18741;DHT22;9499;52.472;13.448;2022-09-29T06:47:58;8.40;99.90
18741;DHT22;9499;52.472;13.448;2022-09-29T06:50:25;8.40;99.90
18741;DHT22;9499;52.472;13.448;2022-09-29T06:52:51;8.40;99.90
18741;DHT22;9499;52.472;13.448;2022-09-29T06:55:18;8.50;99.90
18741;DHT22;9499;52.472;13.448;2022-09-29T06:57:44;8.50;99.90
18741;DHT22;9499;52.472;13.448;2022-09-29T07:00:11;8.60;99.90
18741;DHT22;9499;52.472;13.448;2022-09-29T07:02:37;8.50;99.90
18741;DHT22;9499;52.472;13.448;2022-09-29T07:05:06;8.50;99.90
18741;DHT22;9499;52.472;13.448;2022-09-29T07:07:33;8.60;99.90
18741;DHT22;9499;52.472;13.448;2022-09-29T07:09:59;8.60;99.90
18741;DHT22;9499;52.472;13.448;2022-09-29T07:12:26;8.60;99.90
18741;DHT22;9499;52.472;13.448;2022-09-29T07:14:52;8.60;99.90
18741;DHT22;9499;52.472;13.448;2022-09-29T07:17:19;8.60;99.90
18741;DHT22;9499;52.472;13.448;2022-09-29T07:19:46;8.70;99.90
18741;DHT22;9499;52.472;13.448;2022-09-29T07:22:13;8.60;99.90
18741;DHT22;9499;52.472;13.448;2022-09-29T07:24:40;8.60;99.90
18741;DHT22;9499;52.472;13.448;2022-09-29T07:27:07;8.70;99.90
18741;DHT22;9499;52.472;13.448;2022-09-29T07:29:34;8.70;99.90
18741;DHT22;9499;52.472;13.448;2022-09-29T07:32:00;8.80;99.90
18741;DHT22;9499;52.472;13.448;2022-09-29T07:34:27;8.90;99.90
18741;DHT22;9499;52.472;13.448;2022-09-29T07:36:53;8.80;99.90
18741;DHT22;9499;52.472;13.448;2022-09-29T07:39:21;8.80;99.90
18741;DHT22;9499;52.472;13.448;2022-09-29T07:41:48;8.80;99.90
18741;DHT22;9499;52.472;13.448;2022-09-29T07:44:16;8.90;99.90
18741;DHT22;9499;52.472;13.448;2022-09-29T07:46:42;8.90;99.90
18741;DHT22;9499;52.472;13.448;2022-09-29T07:49:09;9.00;99.90
18741;DHT22;9499;52.472;13.448;2022-09-29T07:51:35;9.10;99.90
18741;DHT22;9499;52.472;13.448;2022-09-29T07:54:02;9.20;99.90
18741;DHT22;9499;52.472;13.448;2022-09-29T07:56:30;9.20;99.90
18741;DHT22;9499;52.472;13.448;2022-09-29T07:58:58;9.20;99.90
18741;DHT22;9499;52.472;13.448;2022-09-29T08:01:26;9.30;99.90
18741;DHT22;9499;52.472;13.448;2022-09-29T08:03:54;9.30;99.90
18741;DHT22;9499;52.472;13.448;2022-09-29T08:06:21;9.40;99.90
18741;DHT22;9499;52.472;13.448;2022-09-29T08:08:48;9.40;99.90
18741;DHT22;9499;52.472;13.448;2022-09-29T08:11:16;9.40;99.90
18741;DHT22;9499;52.472;13.448;2022-09-29T08:13:46;9.40;99.90
18741;DHT22;9499;52.472;13.448;2022-09-29T08:16:14;9.40;99.90
18741;DHT22;9499;52.472;13.448;2022-09-29T08:18:41;9.40;99.90
18741;DHT22;9499;52.472;13.448;2022-09-29T08:21:09;9.40;99.90
18741;DHT22;9499;52.472;13.448;2022-09-29T08:23:36;9.50;99.90
18741;DHT22;9499;52.472;13.448;2022-09-29T08:26:05;9.50;99.90
18741;DHT22;9499;52.472;13.448;2022-09-29T08:28:33;9.60;99.90
18741;DHT22;9499;52.472;13.448;2022-09-29T08:31:05;9.70;99.90
18741;DHT22;9499;52.472;13.448;2022-09-29T08:33:32;9.70;99.90
18741;DHT22;9499;52.472;13.448;2022-09-29T08:36:00;9.80;99.90
18741;DHT22;9499;52.472;13.448;2022-09-29T08:38:28;9.80;99.90
18741;DHT22;9499;52.472;13.448;2022-09-29T08:40:56;10.00;99.90
18741;DHT22;9499;52.472;13.448;2022-09-29T08:43:25;10.00;99.90
18741;DHT22;9499;52.472;13.448;2022-09-29T08:45:59;10.10;99.90
18741;DHT22;9499;52.472;13.448;2022-09-29T08:48:31;10.20;99.90
18741;DHT22;9499;52.472;13.448;2022-09-29T08:51:01;10.30;99.90
18741;DHT22;9499;52.472;13.448;2022-09-29T08:53:30;10.30;99.90
18741;DHT22;9499;52.472;13.448;2022-09-29T08:55:59;10.40;99.90
18741;DHT22;9499;52.472;13.448;2022-09-29T08:58:27;10.50;99.90
18741;DHT22;9499;52.472;13.448;2022-09-29T09:01:02;10.60;99.90
18741;DHT22;9499;52.472;13.448;2022-09-29T09:03:45;10.60;99.90
18741;DHT22;9499;52.472;13.448;2022-09-29T09:06:21;10.70;99.90
18741;DHT22;9499;52.472;13.448;2022-09-29T09:09:11;10.70;99.90
18741;DHT22;9499;52.472;13.448;2022-09-29T09:12:00;10.80;99.90
18741;DHT22;9499;52.472;13.448;2022-09-29T09:14:50;10.90;99.90
18741;DHT22;9499;52.472;13.448;2022-09-29T09:17:28;10.90;99.90
18741;DHT22;9499;52.472;13.448;2022-09-29T09:20:10;11.00;99.90
18741;DHT22;9499;52.472;13.448;2022-09-29T09:22:47;11.00;99.90
18741;DHT22;9499;52.472;13.448;2022-09-29T09:25:19;11.10;99.90
18741;DHT22;9499;52.472;13.448;2022-09-29T09:27:58;11.30;99.90
18741;DHT22;9499;52.472;13.448;2022-09-29T09:30:33;11.40;99.90
18741;DHT22;9499;52.472;13.448;2022-09-29T09:33:04;11.40;99.90
18741;DHT22;9499;52.472;13.448;2022-09-29T09:35:37;11.50;99.90
18741;DHT22;9499;52.472;13.448;2022-09-29T09:38:12;11.60;99.90
18741;DHT22;9499;52.472;13.448;2022-09-29T09:40:43;11.80;99.90
18741;DHT22;9499;52.472;13.448;2022-09-29T09:43:13;11.90;99.90
18741;DHT22;9499;52.472;13.448;2022-09-29T09:45:46;12.00;99.90
18741;DHT22;9499;52.472;13.448;2022-09-29T09:48:17;12.10;99.90
18741;DHT22;9499;52.472;13.448;2022-09-29T09:50:46;12.10;99.90
18741;DHT22;9499;52.472;13.448;2022-09-29T09:53:19;12.20;99.90
18741;DHT22;9499;52.472;13.448;2022-09-29T09:55:56;12.40;99.90
18741;DHT22;9499;52.472;13.448;2022-09-29T09:58:30;12.60;99.90
18741;DHT22;9499;52.472;13.448;2022-09-29T10:01:04;12.80;99.90
18741;DHT22;9499;52.472;13.448;2022-09-29T10:03:31;13.00;99.90
18741;DHT22;9499;52.472;13.448;2022-09-29T10:05:59;13.20;99.90
18741;DHT22;9499;52.472;13.448;2022-09-29T10:08:27;13.20;99.90
18741;DHT22;9499;52.472;13.448;2022-09-29T10:10:56;13.20;99.90
18741;DHT22;9499;52.472;13.448;2022-09-29T10:13:24;13.20;99.90
18741;DHT22;9499;52.472;13.448;2022-09-29T10:15:54;13.40;99.90
18741;DHT22;9499;52.472;13.448;2022-09-29T10:18:24;13.50;99.90
18741;DHT22;9499;52.472;13.448;2022-09-29T10:20:52;13.40;99.90
18741;DHT22;9499;52.472;13.448;2022-09-29T10:23:31;13.50;99.90
18741;DHT22;9499;52.472;13.448;2022-09-29T10:26:07;13.80;99.90
18741;DHT22;9499;52.472;13.448;2022-09-29T10:28:40;13.90;99.90
18741;DHT22;9499;52.472;13.448;2022-09-29T10:31:20;14.00;99.90
18741;DHT22;9499;52.472;13.448;2022-09-29T10:33:54;14.00;99.90
18741;DHT22;9499;52.472;13.448;2022-09-29T10:36:21;14.10;99.90
18741;DHT22;9499;52.472;13.448;2022-09-29T10:38:51;14.10;99.90
18741;DHT22;9499;52.472;13.448;2022-09-29T10:41:18;14.10;99.90
18741;DHT22;9499;52.472;13.448;2022-09-29T10:43:46;14.20;99.90
18741;DHT22;9499;52.472;13.448;2022-09-29T10:46:33;14.40;99.90
18741;DHT22;9499;52.472;13.448;2022-09-29T10:49:13;14.40;99.90
18741;DHT22;9499;52.472;13.448;2022-09-29T10:51:46;14.20;99.90
18741;DHT22;9499;52.472;13.448;2022-09-29T10:54:15;14.20;99.90
18741;DHT22;9499;52.472;13.448;2022-09-29T10:56:46;14.40;99.90
18741;DHT22;9499;52.472;13.448;2022-09-29T10:59:14;14.50;99.90
18741;DHT22;9499;52.472;13.448;2022-09-29T11:01:44;14.50;99.90
18741;DHT22;9499;52.472;13.448;2022-09-29T11:04:16;14.70;99.90
18741;DHT22;9499;52.472;13.448;2022-09-29T11:06:43;14.80;99.90
18741;DHT22;9499;52.472;13.448;2022-09-29T11:09:27;15.00;99.90
18741;DHT22;9499;52.472;13.448;2022-09-29T11:11:55;15.00;99.90
18741;DHT22;9499;52.472;13.448;2022-09-29T11:14:23;15.00;99.90
18741;DHT22;9499;52.472;13.448;2022-09-29T11:16:52;14.90;99.90
18741;DHT22;9499;52.472;13.448;2022-09-29T11:19:19;14.70;99.90
18741;DHT22;9499;52.472;13.448;2022-09-29T11:22:16;14.60;99.90
18741;DHT22;9499;52.472;13.448;2022-09-29T11:25:00;14.50;99.90
18741;DHT22;9499;52.472;13.448;2022-09-29T11:27:40;14.50;99.90
18741;DHT22;9499;52.472;13.448;2022-09-29T11:30:13;14.30;99.90
18741;DHT22;9499;52.472;13.448;2022-09-29T11:32:59;14.10;99.90
18741;DHT22;9499;52.472;13.448;2022-09-29T11:35:38;14.10;99.90
18741;DHT22;9499;52.472;13.448;2022-09-29T11:38:19;14.00;99.90
18741;DHT22;9499;52.472;13.448;2022-09-29T11:41:01;14.00;99.90
18741;DHT22;9499;52.472;13.448;2022-09-29T11:43:42;14.00;99.90
18741;DHT22;9499;52.472;13.448;2022-09-29T11:46:20;14.00;99.90
18741;DHT22;9499;52.472;13.448;2022-09-29T11:49:03;13.90;99.90
18741;DHT22;9499;52.472;13.448;2022-09-29T11:51:44;13.90;99.90
18741;DHT22;9499;52.472;13.448;2022-09-29T11:54:26;13.80;99.90
18741;DHT22;9499;52.472;13.448;2022-09-29T11:57:06;13.70;99.90
18741;DHT22;9499;52.472;13.448;2022-09-29T11:59:50;13.70;99.90
18741;DHT22;9499;52.472;13.448;2022-09-29T12:05:21;13.80;99.90
18741;DHT22;9499;52.472;13.448;2022-09-29T12:07:57;13.90;99.90
18741;DHT22;9499;52.472;13.448;2022-09-29T12:10:44;13.90;99.90
18741;DHT22;9499;52.472;13.448;2022-09-29T12:13:24;13.90;99.90
18741;DHT22;9499;52.472;13.448;2022-09-29T12:15:56;13.90;99.90
18741;DHT22;9499;52.472;13.448;2022-09-29T12:18:27;13.80;99.90
18741;DHT22;9499;52.472;13.448;2022-09-29T12:20:57;13.70;99.90
18741;DHT22;9499;52.472;13.448;2022-09-29T12:23:28;13.70;99.90
18741;DHT22;9499;52.472;13.448;2022-09-29T12:25:59;13.60;99.90
18741;DHT22;9499;52.472;13.448;2022-09-29T12:28:34;13.70;99.90
18741;DHT22;9499;52.472;13.448;2022-09-29T12:31:09;13.70;99.90
18741;DHT22;9499;52.472;13.448;2022-09-29T12:33:38;13.90;99.90
18741;DHT22;9499;52.472;13.448;2022-09-29T12:36:15;14.00;99.90
18741;DHT22;9499;52.472;13.448;2022-09-29T12:39:08;14.20;99.90
18741;DHT22;9499;52.472;13.448;2022-09-29T12:41:38;14.40;99.90
18741;DHT22;9499;52.472;13.448;2022-09-29T12:44:13;14.50;99.90
18741;DHT22;9499;52.472;13.448;2022-09-29T12:46:44;14.70;99.90
18741;DHT22;9499;52.472;13.448;2022-09-29T12:49:16;14.60;99.90
18741;DHT22;9499;52.472;13.448;2022-09-29T12:51:45;14.60;99.90
18741;DHT22;9499;52.472;13.448;2022-09-29T12:54:17;14.60;99.90
18741;DHT22;9499;52.472;13.448;2022-09-29T12:56:49;14.60;99.90
18741;DHT22;9499;52.472;13.448;2022-09-29T12:59:30;14.70;99.90
18741;DHT22;9499;52.472;13.448;2022-09-29T13:02:00;14.60;99.90
18741;DHT22;9499;52.472;13.448;2022-09-29T13:04:45;14.40;99.90
18741;DHT22;9499;52.472;13.448;2022-09-29T13:07:41;14.30;99.90
18741;DHT22;9499;52.472;13.448;2022-09-29T13:10:26;14.30;99.90
18741;DHT22;9499;52.472;13.448;2022-09-29T13:15:59;14.60;99.90
18741;DHT22;9499;52.472;13.448;2022-09-29T13:18:44;15.40;99.90
18741;DHT22;9499;52.472;13.448;2022-09-29T13:21:18;16.10;99.90
18741;DHT22;9499;52.472;13.448;2022-09-29T13:24:04;16.60;99.90
18741;DHT22;9499;52.472;13.448;2022-09-29T13:29:38;17.10;99.90
18741;DHT22;9499;52.472;13.448;2022-09-29T13:32:09;17.40;99.90
18741;DHT22;9499;52.472;13.448;2022-09-29T13:34:37;17.50;99.90
18741;DHT22;9499;52.472;13.448;2022-09-29T13:37:06;17.50;99.90
18741;DHT22;9499;52.472;13.448;2022-09-29T13:39:34;17.50;99.90
18741;DHT22;9499;52.472;13.448;2022-09-29T13:42:27;17.50;99.90
18741;DHT22;9499;52.472;13.448;2022-09-29T13:45:35;17.60;99.90
18741;DHT22;9499;52.472;13.448;2022-09-29T13:51:27;17.50;99.90
18741;DHT22;9499;52.472;13.448;2022-09-29T13:57:27;17.30;99.90
18741;DHT22;9499;52.472;13.448;2022-09-29T14:00:15;17.00;99.90
18741;DHT22;9499;52.472;13.448;2022-09-29T14:02:45;16.80;99.90
18741;DHT22;9499;52.472;13.448;2022-09-29T14:05:44;16.70;99.90
18741;DHT22;9499;52.472;13.448;2022-09-29T14:08:18;16.50;99.90
18741;DHT22;9499;52.472;13.448;2022-09-29T14:10:49;16.30;99.90
18741;DHT22;9499;52.472;13.448;2022-09-29T14:13:21;16.30;99.90
18741;DHT22;9499;52.472;13.448;2022-09-29T14:16:01;16.20;99.90
18741;DHT22;9499;52.472;13.448;2022-09-29T14:18:32;16.10;99.90
18741;DHT22;9499;52.472;13.448;2022-09-29T14:21:03;16.10;99.90
18741;DHT22;9499;52.472;13.448;2022-09-29T14:23:49;16.00;99.90
18741;DHT22;9499;52.472;13.448;2022-09-29T14:26:45;16.00;99.90
18741;DHT22;9499;52.472;13.448;2022-09-29T14:29:16;16.00;99.90
18741;DHT22;9499;52.472;13.448;2022-09-29T14:31:47;16.00;99.90
18741;DHT22;9499;52.472;13.448;2022-09-29T14:34:16;15.90;99.90
18741;DHT22;9499;52.472;13.448;2022-09-29T14:36:45;15.90;99.90
18741;DHT22;9499;52.472;13.448;2022-09-29T14:39:14;15.80;99.90
18741;DHT22;9499;52.472;13.448;2022-09-29T14:41:45;15.80;99.90
18741;DHT22;9499;52.472;13.448;2022-09-29T14:44:19;15.80;99.90
18741;DHT22;9499;52.472;13.448;2022-09-29T14:47:02;15.80;99.90
18741;DHT22;9499;52.472;13.448;2022-09-29T14:49:59;15.90;99.90
18741;DHT22;9499;52.472;13.448;2022-09-29T14:52:55;15.80;99.90
18741;DHT22;9499;52.472;13.448;2022-09-29T14:55:28;15.60;99.90
18741;DHT22;9499;52.472;13.448;2022-09-29T14:58:05;15.50;99.90
18741;DHT22;9499;52.472;13.448;2022-09-29T15:00:47;15.50;99.90
18741;DHT22;9499;52.472;13.448;2022-09-29T15:03:21;15.40;99.90
18741;DHT22;9499;52.472;13.448;2022-09-29T15:06:03;15.40;99.90
18741;DHT22;9499;52.472;13.448;2022-09-29T15:08:30;15.30;99.90
18741;DHT22;9499;52.472;13.448;2022-09-29T15:11:00;15.20;99.90
18741;DHT22;9499;52.472;13.448;2022-09-29T15:13:28;15.10;99.90
18741;DHT22;9499;52.472;13.448;2022-09-29T15:15:59;15.10;99.90
18741;DHT22;9499;52.472;13.448;2022-09-29T15:18:40;15.00;99.90
18741;DHT22;9499;52.472;13.448;2022-09-29T15:21:16;15.00;99.90
18741;DHT22;9499;52.472;13.448;2022-09-29T15:24:15;14.90;99.90
18741;DHT22;9499;52.472;13.448;2022-09-29T15:26:48;14.80;99.90
18741;DHT22;9499;52.472;13.448;2022-09-29T15:29:16;14.70;99.90
18741;DHT22;9499;52.472;13.448;2022-09-29T15:31:45;14.60;99.90
18741;DHT22;9499;52.472;13.448;2022-09-29T15:34:17;14.50;99.90
18741;DHT22;9499;52.472;13.448;2022-09-29T15:36:47;14.50;99.90
18741;DHT22;9499;52.472;13.448;2022-09-29T15:39:41;14.40;99.90
18741;DHT22;9499;52.472;13.448;2022-09-29T15:42:16;14.50;99.90
18741;DHT22;9499;52.472;13.448;2022-09-29T15:44:45;14.60;99.90
18741;DHT22;9499;52.472;13.448;2022-09-29T15:47:25;14.70;99.90
18741;DHT22;9499;52.472;13.448;2022-09-29T15:49:52;14.90;99.90
18741;DHT22;9499;52.472;13.448;2022-09-29T15:52:20;15.20;99.90
18741;DHT22;9499;52.472;13.448;2022-09-29T15:54:52;15.40;99.90
18741;DHT22;9499;52.472;13.448;2022-09-29T15:57:40;15.40;99.90
18741;DHT22;9499;52.472;13.448;2022-09-29T16:00:40;15.40;99.90
18741;DHT22;9499;52.472;13.448;2022-09-29T16:03:11;15.40;99.90
18741;DHT22;9499;52.472;13.448;2022-09-29T16:05:41;15.30;99.90
18741;DHT22;9499;52.472;13.448;2022-09-29T16:08:15;15.20;99.90
18741;DHT22;9499;52.472;13.448;2022-09-29T16:10:49;15.00;99.90
18741;DHT22;9499;52.472;13.448;2022-09-29T16:13:22;15.00;99.90
18741;DHT22;9499;52.472;13.448;2022-09-29T16:15:51;14.80;99.90
18741;DHT22;9499;52.472;13.448;2022-09-29T16:18:23;14.70;99.90
18741;DHT22;9499;52.472;13.448;2022-09-29T16:20:50;14.60;99.90
18741;DHT22;9499;52.472;13.448;2022-09-29T16:23:21;14.50;99.90
18741;DHT22;9499;52.472;13.448;2022-09-29T16:26:08;14.40;99.90
18741;DHT22;9499;52.472;13.448;2022-09-29T16:28:57;14.40;99.90